createdAt,value
2022-08-01T00:01:53.830Z,63.43
2022-08-01T00:04:40.870Z,64.15
2022-08-01T00:07:27.811Z,63.85
2022-08-01T00:10:16.463Z,67.39
2022-08-01T00:13:03.518Z,67.20
2022-08-01T00:15:53.722Z,67.55
2022-08-01T00:18:41.333Z,67.09
2022-08-01T00:21:28.488Z,66.57
2022-08-01T00:24:15.464Z,66.88
2022-08-01T00:27:03.413Z,70.67
2022-08-01T00:30:12.817Z,69.45
2022-08-01T00:32:57.686Z,71.12
2022-08-01T00:35:45.032Z,71.74
2022-08-01T00:38:32.353Z,69.91
2022-08-01T00:41:19.668Z,68.19
2022-08-01T00:44:06.808Z,67.02
2022-08-01T00:46:54.090Z,66.43
2022-08-01T00:49:41.265Z,69.96
2022-08-01T00:52:28.320Z,66.05
2022-08-01T00:55:16.338Z,65.97
2022-08-01T00:58:06.002Z,67.90
2022-08-01T01:00:54.670Z,68.21
2022-08-01T01:03:58.472Z,68.46
2022-08-01T01:07:12.977Z,68.19
2022-08-01T01:10:08.614Z,68.78
2022-08-01T01:13:21.507Z,67.75
2022-08-01T01:16:20.330Z,69.00
2022-08-01T01:19:14.689Z,73.74
2022-08-01T01:22:19.634Z,73.63
2022-08-01T01:25:15.874Z,73.70
2022-08-01T01:28:30.472Z,75.99
2022-08-01T01:31:22.421Z,79.16
2022-08-01T01:34:12.289Z,79.20
2022-08-01T01:37:02.486Z,79.20
2022-08-01T01:39:54.001Z,75.21
2022-08-01T01:42:43.309Z,76.25
2022-08-01T01:45:31.918Z,76.19
2022-08-01T01:48:21.776Z,75.92
2022-08-01T01:51:09.875Z,73.80
2022-08-01T01:53:58.864Z,70.96
2022-08-01T01:56:49.694Z,67.91
2022-08-01T01:59:40.163Z,71.77
2022-08-01T02:02:29.163Z,71.67
2022-08-01T02:05:16.399Z,68.39
2022-08-01T02:08:05.601Z,69.01
2022-08-01T02:11:15.085Z,69.30
2022-08-01T02:14:05.349Z,70.96
2022-08-01T02:16:52.456Z,69.93
2022-08-01T02:19:40.057Z,70.85
2022-08-01T02:22:33.538Z,69.94
2022-08-01T02:25:31.657Z,69.72
2022-08-01T02:28:29.270Z,68.61
2022-08-01T02:31:21.380Z,69.97
2022-08-01T02:34:11.283Z,70.01
2022-08-01T02:36:59.978Z,69.79
2022-08-01T02:39:51.876Z,71.45
2022-08-01T02:42:42.846Z,70.32
2022-08-01T02:45:31.691Z,70.24
2022-08-01T02:48:20.912Z,71.40
2022-08-01T02:51:10.362Z,69.57
2022-08-01T02:54:00.001Z,70.47
2022-08-01T02:56:48.269Z,68.86
2022-08-01T02:59:38.977Z,70.07
2022-08-01T03:02:30.283Z,70.11
2022-08-01T03:05:18.660Z,70.34
2022-08-01T03:08:12.070Z,68.07
2022-08-01T03:11:02.840Z,70.85
2022-08-01T03:13:51.607Z,67.69
2022-08-01T03:16:43.049Z,68.44
2022-08-01T03:19:32.577Z,67.84
2022-08-01T03:22:21.502Z,66.55
2022-08-01T03:25:10.048Z,67.67
2022-08-01T03:28:03.068Z,66.94
2022-08-01T03:30:51.489Z,66.85
2022-08-01T03:33:38.495Z,66.59
2022-08-01T03:36:29.628Z,66.48
2022-08-01T03:39:19.064Z,67.11
2022-08-01T03:42:13.188Z,66.57
2022-08-01T03:45:05.782Z,66.59
2022-08-01T03:48:03.293Z,67.08
2022-08-01T03:50:53.405Z,67.50
2022-08-01T03:53:43.433Z,67.50
2022-08-01T03:56:33.035Z,68.16
2022-08-01T03:59:21.587Z,69.12
2022-08-01T04:02:09.451Z,67.72
2022-08-01T04:04:57.053Z,66.76
2022-08-01T04:07:49.187Z,65.17
2022-08-01T04:10:36.301Z,67.14
2022-08-01T04:13:23.339Z,66.69
2022-08-01T04:16:10.751Z,66.86
2022-08-01T04:18:57.701Z,68.19
2022-08-01T04:21:44.703Z,67.64
2022-08-01T04:24:33.553Z,66.21
2022-08-01T04:27:50.393Z,66.41
2022-08-01T04:30:35.701Z,67.52
2022-08-01T04:33:24.073Z,66.53
2022-08-01T04:36:13.374Z,67.15
2022-08-01T04:39:03.225Z,67.35
2022-08-01T04:41:52.282Z,66.05
2022-08-01T04:44:39.672Z,67.90
2022-08-01T04:47:27.972Z,66.84
2022-08-01T04:50:15.215Z,66.33
2022-08-01T04:53:04.152Z,66.08
2022-08-01T04:55:51.104Z,65.32
2022-08-01T04:58:38.221Z,66.24
2022-08-01T05:01:25.186Z,65.99
2022-08-01T05:04:12.211Z,63.68
2022-08-01T05:06:59.214Z,63.26
2022-08-01T05:09:47.295Z,63.55
2022-08-01T05:12:34.278Z,63.61
2022-08-01T05:15:22.254Z,62.67
2022-08-01T05:18:09.564Z,64.25
2022-08-01T05:20:56.815Z,62.97
2022-08-01T05:23:43.866Z,58.63
2022-08-01T05:26:30.892Z,60.38
2022-08-01T05:29:19.063Z,61.74
2022-08-01T05:32:06.735Z,61.37
2022-08-01T05:34:54.063Z,62.79
2022-08-01T05:37:41.093Z,63.24
2022-08-01T05:40:28.174Z,64.24
2022-08-01T05:43:15.334Z,64.46
2022-08-01T05:46:02.608Z,64.92
2022-08-01T05:48:49.843Z,64.41
2022-08-01T05:51:37.007Z,66.19
2022-08-01T05:54:24.208Z,63.01
2022-08-01T05:57:11.292Z,59.80
2022-08-01T05:59:59.502Z,57.24
2022-08-01T06:02:46.543Z,56.72
2022-08-01T06:05:33.567Z,56.30
2022-08-01T06:08:20.565Z,59.79
2022-08-01T06:11:07.697Z,57.58
2022-08-01T06:13:54.851Z,62.77
2022-08-01T06:16:41.868Z,64.65
2022-08-01T06:19:28.813Z,66.39
2022-08-01T06:22:15.793Z,66.62
2022-08-01T06:25:02.795Z,64.05
2022-08-01T06:27:50.830Z,62.10
2022-08-01T06:30:37.919Z,65.14
2022-08-01T06:33:25.106Z,60.74
2022-08-01T06:36:12.172Z,61.91
2022-08-01T06:38:59.275Z,59.36
2022-08-01T06:41:48.010Z,58.02
2022-08-01T06:44:35.258Z,57.43
2022-08-01T06:47:22.228Z,55.80
2022-08-01T06:50:10.461Z,58.68
2022-08-01T06:52:58.559Z,60.46
2022-08-01T06:55:45.528Z,60.00
2022-08-01T06:58:32.595Z,56.85
2022-08-01T07:01:19.668Z,56.07
2022-08-01T07:04:06.810Z,55.45
2022-08-01T07:06:53.795Z,53.63
2022-08-01T07:09:44.372Z,54.58
2022-08-01T07:12:31.819Z,52.99
2022-08-01T07:15:21.680Z,56.74
2022-08-01T07:18:09.171Z,56.26
2022-08-01T07:20:56.206Z,54.31
2022-08-01T07:23:45.941Z,54.14
2022-08-01T07:26:33.396Z,55.61
2022-08-01T07:29:20.351Z,53.91
2022-08-01T07:32:07.820Z,54.47
2022-08-01T07:34:55.210Z,52.38
2022-08-01T07:37:48.652Z,56.11
2022-08-01T07:40:36.329Z,54.44
2022-08-01T07:43:23.372Z,52.49
2022-08-01T07:46:10.457Z,51.58
2022-08-01T07:48:57.851Z,51.59
2022-08-01T07:52:02.377Z,52.50
2022-08-01T07:54:52.357Z,51.83
2022-08-01T07:57:39.651Z,47.25
2022-08-01T08:00:28.770Z,48.95
2022-08-01T08:03:15.968Z,51.17
2022-08-01T08:06:03.099Z,47.57
2022-08-01T08:08:50.382Z,44.64
2022-08-01T08:11:37.336Z,46.12
2022-08-01T08:14:32.586Z,46.35
2022-08-01T08:17:20.461Z,47.62
2022-08-01T08:20:09.188Z,45.26
2022-08-01T08:22:59.178Z,46.82
2022-08-01T08:25:46.175Z,42.16
2022-08-01T08:28:33.258Z,39.97
2022-08-01T08:31:25.317Z,42.70
2022-08-01T08:34:28.978Z,44.19
2022-08-01T08:37:15.950Z,41.00
2022-08-01T08:40:05.539Z,45.19
2022-08-01T08:42:53.942Z,46.61
2022-08-01T08:45:58.755Z,42.76
2022-08-01T08:48:47.788Z,42.08
2022-08-01T08:51:38.899Z,43.53
2022-08-01T08:54:31.072Z,46.98
2022-08-01T08:57:21.469Z,44.90
2022-08-01T09:00:10.521Z,40.32
2022-08-01T09:02:57.595Z,41.01
2022-08-01T09:05:45.261Z,40.70
2022-08-01T09:08:33.492Z,44.37
2022-08-01T09:11:22.881Z,42.42
2022-08-01T09:14:23.360Z,44.45
2022-08-01T09:17:12.104Z,43.09
2022-08-01T09:19:59.333Z,39.17
2022-08-01T09:22:47.937Z,39.19
2022-08-01T09:25:52.433Z,41.10
2022-08-01T09:28:42.973Z,44.17
2022-08-01T09:31:47.590Z,50.19
2022-08-01T09:34:35.058Z,43.62
2022-08-01T09:37:37.232Z,40.47
2022-08-01T09:40:24.627Z,42.13
2022-08-01T09:43:15.043Z,42.49
2022-08-01T09:46:12.859Z,45.14
2022-08-01T09:49:02.403Z,44.43
2022-08-01T09:51:58.794Z,42.66
2022-08-01T09:54:57.639Z,39.01
2022-08-01T09:57:56.582Z,41.49
2022-08-01T10:00:45.693Z,46.92
2022-08-01T10:03:33.889Z,43.82
2022-08-01T10:06:25.050Z,40.41
2022-08-01T10:09:14.449Z,42.52
2022-08-01T10:12:02.469Z,43.46
2022-08-01T10:14:51.101Z,41.23
2022-08-01T10:17:50.424Z,42.33
2022-08-01T10:20:38.964Z,42.60
2022-08-01T10:23:39.890Z,43.44
2022-08-01T10:26:30.598Z,41.42
2022-08-01T10:29:44.897Z,40.77
2022-08-01T10:32:28.808Z,37.23
2022-08-01T10:35:46.728Z,35.62
2022-08-01T10:38:29.046Z,36.40
2022-08-01T10:41:16.843Z,44.73
2022-08-01T10:44:04.106Z,41.40
2022-08-01T10:46:55.676Z,43.54
2022-08-01T10:50:05.712Z,43.49
2022-08-01T10:53:24.456Z,37.59
2022-08-01T10:56:18.453Z,38.98
2022-08-01T10:59:06.395Z,38.44
2022-08-01T11:02:00.365Z,38.81
2022-08-01T11:04:56.400Z,40.63
2022-08-01T11:07:53.411Z,42.77
2022-08-01T11:10:44.191Z,45.41
2022-08-01T11:14:13.545Z,44.07
2022-08-01T11:17:37.212Z,45.09
2022-08-01T11:20:27.408Z,43.20
2022-08-01T11:23:18.379Z,41.46
2022-08-01T11:26:10.545Z,41.57
2022-08-01T11:29:27.453Z,38.65
2022-08-01T11:32:28.033Z,35.99
2022-08-01T11:35:17.042Z,42.39
2022-08-01T11:38:37.616Z,41.17
2022-08-01T11:41:37.701Z,42.94
2022-08-01T11:44:30.236Z,43.78
2022-08-01T11:47:18.208Z,47.35
2022-08-01T11:50:35.178Z,47.71
2022-08-01T11:53:22.986Z,47.50
2022-08-01T11:56:14.164Z,47.08
2022-08-01T11:59:04.874Z,43.80
2022-08-01T12:02:03.118Z,32.57
2022-08-01T12:04:51.466Z,30.44
2022-08-01T12:07:40.047Z,31.87
2022-08-01T12:10:49.715Z,30.00
2022-08-01T12:13:44.393Z,34.82
2022-08-01T12:16:33.375Z,33.97
2022-08-01T12:19:24.762Z,39.80
2022-08-01T12:22:15.475Z,40.76
2022-08-01T12:25:11.095Z,42.37
2022-08-01T12:28:02.731Z,44.12
2022-08-01T12:30:50.674Z,43.10
2022-08-01T12:33:37.667Z,43.20
2022-08-01T12:36:31.307Z,39.71
2022-08-01T12:39:18.991Z,39.13
2022-08-01T12:42:11.614Z,40.27
2022-08-01T12:44:58.794Z,42.89
2022-08-01T12:47:47.361Z,56.37
2022-08-01T12:50:35.086Z,71.73
2022-08-01T12:53:22.871Z,75.83
2022-08-01T12:56:11.720Z,83.62
2022-08-01T12:59:00.297Z,80.62
2022-08-01T13:01:48.192Z,63.58
2022-08-01T13:04:52.307Z,78.64
2022-08-01T13:07:48.905Z,92.07
2022-08-01T13:10:36.258Z,78.66
2022-08-01T13:13:28.569Z,82.15
2022-08-01T13:16:30.356Z,84.64
2022-08-01T13:19:46.206Z,89.89
2022-08-01T13:22:37.625Z,87.11
2022-08-01T13:25:27.381Z,84.24
2022-08-01T13:28:25.476Z,79.92
2022-08-01T13:31:12.993Z,75.49
2022-08-01T13:34:00.616Z,79.26
2022-08-01T13:36:49.603Z,79.91
2022-08-01T13:39:45.042Z,80.37
2022-08-01T13:42:32.998Z,75.99
2022-08-01T13:45:22.199Z,69.54
2022-08-01T13:48:13.017Z,64.63
2022-08-01T13:51:21.399Z,67.73
2022-08-01T13:54:09.672Z,68.34
2022-08-01T13:56:56.734Z,67.30
2022-08-01T13:59:43.876Z,65.43
2022-08-01T14:02:30.991Z,61.80
2022-08-01T14:05:17.963Z,61.74
2022-08-01T14:08:05.262Z,63.72
2022-08-01T14:10:53.209Z,57.54
2022-08-01T14:13:45.244Z,64.81
2022-08-01T14:16:33.806Z,57.04
2022-08-01T14:19:23.049Z,62.15
2022-08-01T14:22:26.061Z,63.73
2022-08-01T14:25:13.537Z,64.75
2022-08-01T14:28:11.459Z,63.28
2022-08-01T14:30:59.069Z,63.44
2022-08-01T14:33:46.055Z,59.66
2022-08-01T14:36:38.309Z,55.34
2022-08-01T14:39:26.239Z,51.23
2022-08-01T14:42:14.230Z,47.76
2022-08-01T14:45:01.422Z,49.26
2022-08-01T14:47:48.527Z,47.93
2022-08-01T14:50:35.737Z,43.46
2022-08-01T14:53:22.821Z,41.27
2022-08-01T14:56:09.838Z,44.38
2022-08-01T14:58:56.857Z,44.52
2022-08-01T15:01:43.917Z,45.32
2022-08-01T15:04:31.594Z,45.72
2022-08-01T15:07:19.253Z,46.41
2022-08-01T15:10:07.255Z,45.90
2022-08-01T15:12:54.392Z,45.72
2022-08-01T15:15:41.699Z,46.25
2022-08-01T15:18:29.740Z,40.64
2022-08-01T15:21:34.328Z,44.55
2022-08-01T15:24:23.722Z,38.72
2022-08-01T15:27:11.253Z,41.42
2022-08-01T15:29:58.584Z,45.94
2022-08-01T15:32:45.710Z,43.28
2022-08-01T15:35:32.859Z,42.12
2022-08-01T15:38:20.482Z,43.09
2022-08-01T15:41:07.584Z,42.30
2022-08-01T15:43:56.230Z,39.12
2022-08-01T15:46:43.445Z,44.70
2022-08-01T15:49:31.178Z,38.84
2022-08-01T15:52:22.429Z,41.21
2022-08-01T15:55:11.550Z,38.14
2022-08-01T15:57:58.598Z,37.71
2022-08-01T16:00:45.742Z,39.70
2022-08-01T16:03:32.726Z,40.57
2022-08-01T16:06:19.887Z,42.15
2022-08-01T16:09:07.130Z,44.04
2022-08-01T16:11:54.256Z,43.20
2022-08-01T16:14:41.308Z,48.63
2022-08-01T16:17:28.476Z,50.37
2022-08-01T16:20:16.269Z,52.49
2022-08-01T16:23:03.386Z,52.07
2022-08-01T16:25:51.190Z,53.27
2022-08-01T16:28:38.482Z,54.48
2022-08-01T16:31:36.267Z,54.72
2022-08-01T16:34:24.393Z,51.90
2022-08-01T16:37:11.403Z,53.12
2022-08-01T16:39:58.447Z,53.68
2022-08-01T16:42:45.521Z,53.68
2022-08-01T16:45:32.483Z,53.54
2022-08-01T16:48:19.864Z,54.09
2022-08-01T16:51:06.892Z,55.25
2022-08-01T16:53:53.950Z,55.90
2022-08-01T16:56:41.027Z,62.14
2022-08-01T16:59:28.221Z,58.83
2022-08-01T17:02:15.358Z,58.10
2022-08-01T17:05:06.997Z,60.23
2022-08-01T17:07:55.671Z,58.32
2022-08-01T17:10:43.274Z,56.34
2022-08-01T17:13:30.616Z,58.62
2022-08-01T17:16:20.384Z,58.44
2022-08-01T17:19:07.652Z,59.88
2022-08-01T17:21:55.043Z,62.28
2022-08-01T17:24:42.240Z,58.51
2022-08-01T17:27:29.285Z,62.54
2022-08-01T17:30:16.674Z,64.54
2022-08-01T17:33:04.209Z,68.52
2022-08-01T17:35:51.365Z,70.92
2022-08-01T17:38:38.401Z,73.61
2022-08-01T17:41:25.813Z,74.80
2022-08-01T17:44:12.915Z,72.90
2022-08-01T17:47:00.326Z,67.95
2022-08-01T17:49:54.841Z,65.64
2022-08-01T17:52:42.704Z,67.80
2022-08-01T17:55:53.251Z,69.16
2022-08-01T17:58:51.951Z,65.83
2022-08-01T18:01:39.840Z,69.46
2022-08-01T18:04:33.920Z,68.18
2022-08-01T18:07:21.740Z,67.33
2022-08-01T18:10:11.585Z,71.06
2022-08-01T18:12:58.857Z,73.47
2022-08-01T18:15:48.658Z,74.50
2022-08-01T18:18:38.929Z,73.59
2022-08-01T18:21:26.116Z,73.93
2022-08-01T18:24:13.395Z,70.34
2022-08-01T18:27:01.273Z,74.22
2022-08-01T18:29:48.863Z,73.09
2022-08-01T18:32:36.078Z,71.66
2022-08-01T18:35:24.235Z,69.51
2022-08-01T18:38:32.927Z,71.44
2022-08-01T18:41:20.762Z,73.46
2022-08-01T18:44:08.917Z,82.73
2022-08-01T18:46:56.353Z,88.23
2022-08-01T18:49:43.481Z,85.60
2022-08-01T18:52:31.807Z,89.96
2022-08-01T18:55:19.338Z,91.01
2022-08-01T18:58:06.307Z,84.33
2022-08-01T19:00:53.352Z,86.01
2022-08-01T19:03:42.804Z,83.89
2022-08-01T19:06:30.079Z,83.05
2022-08-01T19:09:20.452Z,83.67
2022-08-01T19:12:08.636Z,82.52
2022-08-01T19:14:55.992Z,85.39
2022-08-01T19:17:44.769Z,86.58
2022-08-01T19:20:32.497Z,85.68
2022-08-01T19:23:37.975Z,87.51
2022-08-01T19:26:27.276Z,85.43
2022-08-01T19:29:21.186Z,85.58
2022-08-01T19:32:10.595Z,92.01
2022-08-01T19:35:07.314Z,97.99
2022-08-01T19:37:56.322Z,99.62
2022-08-01T19:40:44.627Z,95.24
2022-08-01T19:43:39.665Z,93.69
2022-08-01T19:46:30.112Z,95.89
2022-08-01T19:49:19.287Z,100.00
2022-08-01T19:52:07.222Z,100.00
2022-08-01T19:54:58.061Z,100.00
2022-08-01T19:57:59.311Z,100.00
2022-08-01T20:00:54.935Z,100.00
2022-08-01T20:03:43.122Z,100.00
2022-08-01T20:06:30.415Z,100.00
2022-08-01T20:09:18.210Z,100.00
2022-08-01T20:12:06.265Z,100.00
2022-08-01T20:14:56.532Z,100.00
2022-08-01T20:17:45.545Z,100.00
2022-08-01T20:20:35.258Z,100.00
2022-08-01T20:23:24.717Z,100.00
2022-08-01T20:26:14.008Z,100.00
2022-08-01T20:29:03.039Z,100.00
2022-08-01T20:31:50.675Z,100.00
2022-08-01T20:34:39.560Z,100.00
2022-08-01T20:38:04.039Z,100.00
2022-08-01T20:40:34.090Z,100.00
2022-08-01T20:43:22.466Z,100.00
2022-08-01T20:46:09.448Z,100.00
2022-08-01T20:48:58.568Z,100.00
2022-08-01T20:51:47.975Z,100.00
2022-08-01T20:54:34.986Z,100.00
2022-08-01T20:57:25.501Z,100.00
2022-08-01T21:00:14.640Z,100.00
2022-08-01T21:03:23.948Z,100.00
2022-08-01T21:06:17.772Z,100.00
2022-08-01T21:09:06.469Z,100.00
2022-08-01T21:12:04.841Z,100.00
2022-08-01T21:14:56.225Z,100.00
2022-08-01T21:17:43.200Z,100.00
2022-08-01T21:20:32.989Z,100.00
2022-08-01T21:23:48.383Z,100.00
2022-08-01T21:26:36.323Z,100.00
2022-08-01T21:29:25.561Z,100.00
2022-08-01T21:32:15.608Z,100.00
2022-08-01T21:35:05.021Z,100.00
2022-08-01T21:37:53.159Z,100.00
2022-08-01T21:40:40.421Z,100.00
2022-08-01T21:43:27.597Z,100.00
2022-08-01T21:46:17.963Z,100.00
2022-08-01T21:49:05.463Z,100.00
2022-08-01T21:52:21.377Z,100.00
2022-08-01T21:55:52.344Z,100.00
2022-08-01T21:59:06.780Z,100.00
2022-08-01T22:02:04.336Z,100.00
2022-08-01T22:05:04.561Z,100.00
2022-08-01T22:07:54.339Z,100.00
2022-08-01T22:10:41.620Z,100.00
2022-08-01T22:13:29.003Z,100.00
2022-08-01T22:16:16.411Z,100.00
2022-08-01T22:19:04.306Z,100.00
2022-08-01T22:21:53.739Z,100.00
2022-08-01T22:24:41.547Z,100.00
2022-08-01T22:28:03.009Z,100.00
2022-08-01T22:30:41.997Z,100.00
2022-08-01T22:33:29.541Z,100.00
2022-08-01T22:36:17.177Z,100.00
2022-08-01T22:39:04.345Z,100.00
2022-08-01T22:42:01.816Z,100.00
2022-08-01T22:45:03.242Z,100.00
2022-08-01T22:48:03.265Z,100.00
2022-08-01T22:50:54.893Z,100.00
2022-08-01T22:53:48.808Z,100.00
2022-08-01T22:56:43.388Z,100.00
2022-08-01T22:59:42.815Z,100.00
2022-08-01T23:02:33.031Z,100.00
2022-08-01T23:05:25.935Z,100.00
2022-08-01T23:08:14.829Z,100.00
2022-08-01T23:11:05.403Z,100.00
2022-08-01T23:13:52.737Z,100.00
2022-08-01T23:16:40.478Z,100.00
2022-08-01T23:19:28.005Z,100.00
2022-08-01T23:22:16.193Z,100.00
2022-08-01T23:25:08.633Z,100.00
2022-08-01T23:28:05.358Z,100.00
2022-08-01T23:30:53.858Z,100.00
2022-08-01T23:33:41.002Z,100.00
2022-08-01T23:36:27.981Z,100.00
2022-08-01T23:39:15.264Z,100.00
2022-08-01T23:42:07.852Z,100.00
2022-08-01T23:44:56.110Z,100.00
2022-08-01T23:47:43.028Z,100.00
2022-08-01T23:50:29.995Z,100.00
2022-08-01T23:53:17.045Z,100.00
2022-08-01T23:56:06.055Z,100.00
2022-08-01T23:58:53.106Z,100.00
